Time;durP1;ratioP1;P1;durP2;ratioP2;P2;SDS_P1;SDS_P2;PMS_P1;PMS_P2;Temp;Humidity;BMP_temperature;BMP_pressure;BME280_temperature;BME280_humidity;BME280_pressure;Samples;Min_cycle;Max_cycle;Signal;HPM_P1;HPM_P2
2023/12/16 00:00:45;;;;;;;5.40;4.90;;;;;;;0.41;100.00;102165.30;105870;1254;60294;-78
2023/12/16 00:03:12;;;;;;;6.00;4.20;;;;;;;0.37;100.00;102167.16;105679;1252;73171;-76
2023/12/16 00:05:39;;;;;;;4.00;3.60;;;;;;;0.29;100.00;102168.98;105736;1257;63846;-78
2023/12/16 00:08:06;;;;;;;3.70;3.40;;;;;;;0.19;100.00;102164.45;105804;1254;72737;-76
2023/12/16 00:10:33;;;;;;;3.20;2.50;;;;;;;0.13;100.00;102164.90;107193;1254;59736;-75
2023/12/16 00:13:03;;;;;;;2.50;2.00;;;;;;;0.12;100.00;102173.33;106662;1257;59614;-77
2023/12/16 00:15:30;;;;;;;2.30;2.10;;;;;;;0.15;100.00;102181.27;106093;1258;73112;-76
2023/12/16 00:17:57;;;;;;;2.10;1.90;;;;;;;0.15;100.00;102184.02;105870;1257;63925;-76
2023/12/16 00:20:25;;;;;;;2.40;2.20;;;;;;;0.13;100.00;102189.50;105685;1254;72684;-78
2023/12/16 00:22:52;;;;;;;1.70;1.30;;;;;;;0.09;100.00;102191.02;105809;1257;60995;-76
2023/12/16 00:25:19;;;;;;;2.30;2.10;;;;;;;0.04;100.00;102193.04;105856;1257;59644;-76
2023/12/16 00:27:46;;;;;;;2.90;1.90;;;;;;;-0.03;100.00;102192.45;106130;1254;72130;-74
2023/12/16 00:30:12;;;;;;;2.90;2.00;;;;;;;-0.09;100.00;102193.08;107825;1253;62418;-77
2023/12/16 00:32:40;;;;;;;1.30;1.20;;;;;;;-0.14;100.00;102192.00;106224;1257;71697;-77
2023/12/16 00:35:08;;;;;;;1.60;1.50;;;;;;;-0.18;100.00;102194.71;105852;1257;61256;-76
2023/12/16 00:37:35;;;;;;;3.10;1.50;;;;;;;-0.19;100.00;102194.04;105743;1258;59680;-75
2023/12/16 00:40:03;;;;;;;1.70;1.60;;;;;;;-0.20;100.00;102196.08;105835;1253;73177;-77
2023/12/16 00:42:31;;;;;;;2.20;2.00;;;;;;;-0.22;100.00;102198.30;105863;1255;63680;-77
2023/12/16 00:44:58;;;;;;;2.30;1.60;;;;;;;-0.24;100.00;102199.64;105636;1258;72562;-77
2023/12/16 00:47:25;;;;;;;1.50;1.40;;;;;;;-0.26;100.00;102196.53;105636;1257;61057;-75
2023/12/16 00:49:53;;;;;;;1.80;1.60;;;;;;;-0.29;100.00;102194.97;105619;1252;59543;-77
2023/12/16 00:52:19;;;;;;;1.70;1.60;;;;;;;-0.26;100.00;102191.38;105713;1254;72889;-77
2023/12/16 00:54:46;;;;;;;1.90;1.80;;;;;;;-0.23;100.00;102189.86;105764;1254;62451;-76
2023/12/16 00:57:13;;;;;;;2.20;2.00;;;;;;;-0.22;100.00;102185.92;105665;1256;72515;-76
2023/12/16 00:59:40;;;;;;;2.00;1.90;;;;;;;-0.24;100.00;102183.32;105717;1256;60634;-76
2023/12/16 01:02:08;;;;;;;4.30;1.50;;;;;;;-0.26;100.00;102185.54;105752;1254;60511;-76
2023/12/16 01:04:35;;;;;;;1.80;1.70;;;;;;;-0.26;100.00;102190.52;105807;1256;73890;-77
2023/12/16 01:07:02;;;;;;;1.80;1.70;;;;;;;-0.25;100.00;102194.83;105742;1257;63658;-77
2023/12/16 01:09:29;;;;;;;1.50;1.40;;;;;;;-0.26;100.00;102194.64;105754;1254;72735;-77
2023/12/16 01:11:56;;;;;;;1.70;1.60;;;;;;;-0.30;100.00;102190.80;105772;1257;61164;-77
2023/12/16 01:14:23;;;;;;;1.60;1.50;;;;;;;-0.32;100.00;102197.15;105807;1258;60428;-77
2023/12/16 01:16:50;;;;;;;1.80;1.60;;;;;;;-0.35;100.00;102196.09;105795;1254;73736;-77
2023/12/16 01:19:18;;;;;;;1.90;1.80;;;;;;;-0.37;100.00;102196.76;105773;1254;62438;-76
2023/12/16 01:21:44;;;;;;;2.00;1.80;;;;;;;-0.40;100.00;102198.27;105709;1253;72437;-76
2023/12/16 01:24:11;;;;;;;1.90;1.70;;;;;;;-0.45;100.00;102208.86;105804;1253;60547;-77
2023/12/16 01:26:39;;;;;;;2.30;2.10;;;;;;;-0.48;100.00;102214.33;105745;1254;60454;-77
2023/12/16 01:29:06;;;;;;;2.60;2.40;;;;;;;-0.53;100.00;102215.48;105625;1257;73645;-77
2023/12/16 01:31:33;;;;;;;3.90;2.50;;;;;;;-0.59;100.00;102212.48;105773;1254;63823;-77
2023/12/16 01:34:01;;;;;;;2.60;2.30;;;;;;;-0.66;100.00;102214.48;105736;1254;72630;-79
2023/12/16 01:36:28;;;;;;;2.80;2.60;;;;;;;-0.68;100.00;102214.62;105689;1262;61251;-77
2023/12/16 01:38:55;;;;;;;3.50;2.90;;;;;;;-0.69;100.00;102220.77;105785;1253;60323;-78
2023/12/16 01:41:22;;;;;;;3.10;2.80;;;;;;;-0.70;100.00;102222.31;105912;1253;73829;-78
2023/12/16 01:43:48;;;;;;;3.30;3.00;;;;;;;-0.69;100.00;102222.32;105778;1254;62843;-75
2023/12/16 01:46:16;;;;;;;4.30;3.40;;;;;;;-0.68;100.00;102220.80;106026;1254;72661;-77
2023/12/16 01:48:43;;;;;;;4.70;3.50;;;;;;;-0.69;100.00;102223.00;105851;1257;61152;-77
2023/12/16 01:51:11;;;;;;;4.30;3.60;;;;;;;-0.71;100.00;102225.90;105636;1254;60509;-77
2023/12/16 01:53:38;;;;;;;5.30;4.00;;;;;;;-0.74;100.00;102221.41;105774;1257;73859;-77
2023/12/16 01:56:06;;;;;;;4.70;4.00;;;;;;;-0.77;100.00;102223.77;105875;1257;62689;-77
2023/12/16 01:58:33;;;;;;;4.50;3.50;;;;;;;-0.79;100.00;102230.78;105711;1257;71383;-76
2023/12/16 02:01:00;;;;;;;5.50;4.30;;;;;;;-0.82;100.00;102227.84;105997;1257;61241;-78
2023/12/16 02:03:27;;;;;;;6.30;4.60;;;;;;;-0.85;100.00;102224.35;105741;1257;60541;-77
2023/12/16 02:05:56;;;;;;;6.80;5.10;;;;;;;-0.86;100.00;102232.94;105663;1260;72912;-77
2023/12/16 02:08:23;;;;;;;7.80;6.00;;;;;;;-0.86;100.00;102239.29;105927;1254;61370;-77
2023/12/16 02:10:50;;;;;;;9.30;7.50;;;;;;;-0.85;100.00;102241.17;105719;1253;71261;-76
2023/12/16 02:13:18;;;;;;;9.70;7.80;;;;;;;-0.86;100.00;102238.95;105692;1256;61274;-78
2023/12/16 02:15:45;;;;;;;8.40;6.00;;;;;;;-0.87;100.00;102238.77;105606;1253;60522;-78
2023/12/16 02:18:12;;;;;;;7.60;6.50;;;;;;;-0.92;100.00;102246.08;105762;1253;73867;-78
2023/12/16 02:20:40;;;;;;;14.40;10.10;;;;;;;-0.94;100.00;102249.46;105749;1257;64026;-78
2023/12/16 02:23:14;;;;;;;13.10;9.30;;;;;;;-0.96;100.00;102246.18;105733;1253;71135;-76
2023/12/16 02:25:42;;;;;;;11.90;9.30;;;;;;;-0.97;100.00;102245.14;105773;1254;60483;-77
2023/12/16 02:28:10;;;;;;;13.20;9.70;;;;;;;-0.99;100.00;102241.00;105761;1253;60582;-77
2023/12/16 02:30:37;;;;;;;11.30;9.00;;;;;;;-1.01;100.00;102240.79;105814;1254;73827;-77
2023/12/16 02:33:04;;;;;;;11.20;8.80;;;;;;;-1.05;100.00;102243.14;105843;1257;62281;-78
2023/12/16 02:35:33;;;;;;;10.60;9.50;;;;;;;-1.08;100.00;102244.48;105655;1253;71155;-78
2023/12/16 02:38:00;;;;;;;7.60;6.80;;;;;;;-1.10;100.00;102245.98;105723;1259;60508;-77
2023/12/16 02:40:27;;;;;;;6.20;5.60;;;;;;;-1.11;100.00;102251.13;105821;1253;60439;-77
2023/12/16 02:42:55;;;;;;;8.30;6.10;;;;;;;-1.13;100.00;102247.83;105829;1252;73906;-77
2023/12/16 02:45:24;;;;;;;5.90;5.40;;;;;;;-1.15;100.00;102245.58;105851;1257;62851;-77
2023/12/16 02:47:51;;;;;;;6.00;5.50;;;;;;;-1.17;100.00;102244.16;105968;1257;71662;-77
2023/12/16 02:50:18;;;;;;;6.40;5.40;;;;;;;-1.19;100.00;102242.42;105898;1257;61262;-76
2023/12/16 02:52:45;;;;;;;6.80;5.50;;;;;;;-1.22;100.00;102245.45;105710;1257;60355;-77
2023/12/16 02:55:12;;;;;;;6.10;4.80;;;;;;;-1.24;100.00;102252.64;105812;1252;73943;-79
2023/12/16 02:57:39;;;;;;;4.90;4.50;;;;;;;-1.27;100.00;102256.71;105802;1252;63852;-78
2023/12/16 03:00:08;;;;;;;5.60;5.10;;;;;;;-1.30;100.00;102261.31;105669;1257;72588;-77
2023/12/16 03:02:35;;;;;;;5.60;4.70;;;;;;;-1.33;100.00;102267.77;105812;1255;60685;-77
2023/12/16 03:05:03;;;;;;;4.60;4.20;;;;;;;-1.35;100.00;102267.05;105837;1253;60550;-79
2023/12/16 03:07:31;;;;;;;5.50;4.30;;;;;;;-1.37;100.00;102269.77;105690;1254;73846;-77
2023/12/16 03:09:57;;;;;;;6.70;4.90;;;;;;;-1.42;100.00;102266.60;105651;1256;63767;-77
2023/12/16 03:12:24;;;;;;;6.20;5.50;;;;;;;-1.47;100.00;102272.54;105662;1257;72364;-78
2023/12/16 03:14:51;;;;;;;5.20;4.50;;;;;;;-1.51;100.00;102274.70;105717;1257;60446;-78
2023/12/16 03:17:18;;;;;;;7.90;5.50;;;;;;;-1.53;100.00;102279.48;105673;1254;60427;-76
2023/12/16 03:19:45;;;;;;;5.60;5.10;;;;;;;-1.54;100.00;102286.46;105725;1253;73405;-77
2023/12/16 03:22:12;;;;;;;6.70;5.50;;;;;;;-1.54;100.00;102288.70;105648;1257;64054;-77
2023/12/16 03:24:39;;;;;;;7.10;5.80;;;;;;;-1.54;100.00;102290.59;105709;1253;72680;-77
2023/12/16 03:27:07;;;;;;;6.40;4.80;;;;;;;-1.55;100.00;102286.80;105748;1254;60483;-78
2023/12/16 03:29:34;;;;;;;5.70;4.90;;;;;;;-1.56;100.00;102283.17;105693;1257;60444;-76
2023/12/16 03:32:01;;;;;;;7.90;6.10;;;;;;;-1.58;100.00;102288.81;105629;1253;73863;-77
2023/12/16 03:34:30;;;;;;;10.30;6.40;;;;;;;-1.59;100.00;102297.19;105742;1257;63696;-77
2023/12/16 03:36:57;;;;;;;8.60;5.50;;;;;;;-1.61;100.00;102299.38;105737;1254;72584;-77
2023/12/16 03:39:24;;;;;;;12.80;7.80;;;;;;;-1.64;100.00;102294.02;105727;1257;62021;-77
2023/12/16 03:41:51;;;;;;;17.40;10.00;;;;;;;-1.66;100.00;102295.18;105837;1252;60415;-78
2023/12/16 03:44:19;;;;;;;17.70;9.40;;;;;;;-1.69;100.00;102289.83;105725;1253;73555;-77
2023/12/16 03:46:46;;;;;;;16.40;9.90;;;;;;;-1.71;100.00;102293.74;105695;1257;63912;-76
2023/12/16 03:49:13;;;;;;;16.10;11.00;;;;;;;-1.72;100.00;102294.40;105855;1255;71167;-77
2023/12/16 03:51:39;;;;;;;14.70;10.30;;;;;;;-1.72;100.00;102294.73;105870;1256;60482;-78
2023/12/16 03:54:06;;;;;;;14.70;10.20;;;;;;;-1.72;100.00;102301.61;105671;1254;60405;-79
2023/12/16 03:56:33;;;;;;;14.70;9.40;;;;;;;-1.71;100.00;102301.11;105679;1256;73936;-78
2023/12/16 03:59:00;;;;;;;11.70;8.70;;;;;;;-1.69;100.00;102300.98;105729;1258;63856;-77
2023/12/16 04:01:28;;;;;;;8.80;6.90;;;;;;;-1.67;100.00;102300.83;106082;1253;71765;-78
2023/12/16 04:03:55;;;;;;;11.80;7.60;;;;;;;-1.64;100.00;102303.77;106501;1257;62014;-76
2023/12/16 04:06:22;;;;;;;13.70;8.20;;;;;;;-1.63;100.00;102302.95;106049;1257;60405;-77
2023/12/16 04:08:49;;;;;;;12.60;8.40;;;;;;;-1.61;100.00;102297.84;105800;1252;72352;-77
2023/12/16 04:11:16;;;;;;;11.90;8.30;;;;;;;-1.61;100.00;102303.66;105817;1257;63932;-76
2023/12/16 04:13:43;;;;;;;12.60;8.10;;;;;;;-1.61;100.00;102308.31;105737;1253;72807;-78
2023/12/16 04:16:10;;;;;;;17.10;9.40;;;;;;;-1.59;100.00;102314.69;105803;1253;60425;-78
2023/12/16 04:18:37;;;;;;;16.30;9.70;;;;;;;-1.58;100.00;102315.89;105812;1253;60445;-77
2023/12/16 04:21:04;;;;;;;18.10;10.60;;;;;;;-1.57;100.00;102318.48;106434;1252;72381;-76
2023/12/16 04:23:32;;;;;;;17.60;10.40;;;;;;;-1.56;100.00;102320.39;106223;1257;62570;-76
2023/12/16 04:25:59;;;;;;;24.10;11.80;;;;;;;-1.53;100.00;102326.09;106093;1253;72750;-77
2023/12/16 04:28:27;;;;;;;18.40;11.20;;;;;;;-1.52;100.00;102328.86;105813;1252;61033;-76
2023/12/16 04:30:54;;;;;;;20.00;10.20;;;;;;;-1.51;100.00;102324.60;105796;1253;60476;-77
2023/12/16 04:33:21;;;;;;;16.70;10.90;;;;;;;-1.51;100.00;102322.04;105916;1256;73558;-77
2023/12/16 04:35:48;;;;;;;19.00;10.90;;;;;;;-1.53;100.00;102324.22;105796;1256;63689;-78
2023/12/16 04:38:14;;;;;;;17.50;10.60;;;;;;;-1.55;100.00;102326.09;105692;1257;72581;-77
2023/12/16 04:40:42;;;;;;;23.90;11.70;;;;;;;-1.56;100.00;102325.70;105676;1257;61832;-77
2023/12/16 04:43:09;;;;;;;18.50;11.70;;;;;;;-1.57;100.00;102326.04;105826;1253;60447;-78
2023/12/16 04:45:36;;;;;;;23.40;11.40;;;;;;;-1.58;100.00;102320.02;105817;1257;72053;-79
2023/12/16 04:48:03;;;;;;;21.50;13.30;;;;;;;-1.62;100.00;102314.30;105688;1252;63701;-78
2023/12/16 04:50:30;;;;;;;24.20;14.10;;;;;;;-1.64;100.00;102322.83;105852;1253;72705;-77
2023/12/16 04:52:58;;;;;;;22.60;14.30;;;;;;;-1.64;100.00;102326.25;106154;1257;61843;-80
2023/12/16 04:55:25;;;;;;;29.10;15.50;;;;;;;-1.64;100.00;102328.84;105973;1253;60633;-77
2023/12/16 04:57:52;;;;;;;25.60;14.60;;;;;;;-1.63;100.00;102322.49;105793;1257;73872;-77
2023/12/16 05:00:19;;;;;;;26.30;14.70;;;;;;;-1.64;100.00;102323.70;106031;1257;63866;-77
2023/12/16 05:02:46;;;;;;;33.80;17.60;;;;;;;-1.64;100.00;102329.34;106124;1253;72731;-76
2023/12/16 05:05:13;;;;;;;29.40;18.50;;;;;;;-1.64;100.00;102332.41;106039;1253;60566;-79
2023/12/16 05:07:43;;;;;;;30.10;18.30;;;;;;;-1.66;100.00;102338.58;106109;1253;60545;-78
2023/12/16 05:10:14;;;;;;;32.20;17.30;;;;;;;-1.67;100.00;102339.22;105726;1256;73948;-79
2023/12/16 05:12:41;;;;;;;27.90;17.70;;;;;;;-1.69;100.00;102343.31;105874;1257;63681;-76
2023/12/16 05:15:09;;;;;;;30.30;18.10;;;;;;;-1.70;100.00;102343.63;105710;1253;72433;-77
2023/12/16 05:17:36;;;;;;;33.80;20.10;;;;;;;-1.71;100.00;102349.45;105989;1257;61080;-79
2023/12/16 05:20:06;;;;;;;30.90;18.60;;;;;;;-1.72;100.00;102355.44;105945;1257;60365;-77
2023/12/16 05:22:33;;;;;;;37.60;22.00;;;;;;;-1.72;100.00;102357.49;105763;1253;73983;-79
2023/12/16 05:25:01;;;;;;;41.40;19.70;;;;;;;-1.74;100.00;102357.63;105734;1257;63740;-79
2023/12/16 05:27:29;;;;;;;41.10;20.40;;;;;;;-1.77;100.00;102356.88;105750;1253;73726;-78
2023/12/16 05:29:57;;;;;;;41.60;21.00;;;;;;;-1.75;100.00;102357.77;105726;1253;61746;-79
2023/12/16 05:32:26;;;;;;;34.50;21.10;;;;;;;-1.75;100.00;102362.57;105945;1253;60441;-79
2023/12/16 05:34:53;;;;;;;32.90;20.10;;;;;;;-1.76;100.00;102365.80;105757;1257;72438;-78
2023/12/16 05:37:20;;;;;;;36.50;21.00;;;;;;;-1.76;100.00;102370.60;105806;1257;63835;-79
2023/12/16 05:39:48;;;;;;;36.20;22.10;;;;;;;-1.77;100.00;102375.05;105774;1257;72641;-80
2023/12/16 05:42:15;;;;;;;42.60;23.90;;;;;;;-1.78;100.00;102380.20;105911;1254;60604;-78
2023/12/16 05:44:42;;;;;;;38.30;21.30;;;;;;;-1.78;100.00;102376.75;105901;1257;60480;-79
2023/12/16 05:47:09;;;;;;;40.80;23.40;;;;;;;-1.79;100.00;102374.16;105841;1252;72408;-80
2023/12/16 05:49:36;;;;;;;42.00;24.30;;;;;;;-1.78;100.00;102376.40;106022;1257;63961;-78
2023/12/16 05:52:04;;;;;;;36.50;21.70;;;;;;;-1.78;100.00;102381.89;106005;1254;73939;-77
2023/12/16 05:54:30;;;;;;;38.30;22.00;;;;;;;-1.77;100.00;102387.74;106082;1256;61845;-77
2023/12/16 05:56:58;;;;;;;47.50;25.00;;;;;;;-1.75;100.00;102396.16;106176;1253;60455;-77
2023/12/16 05:59:25;;;;;;;43.40;23.50;;;;;;;-1.74;100.00;102404.42;106067;1252;73607;-78
2023/12/16 06:01:52;;;;;;;45.50;23.50;;;;;;;-1.72;100.00;102407.90;106300;1257;63566;-79
2023/12/16 06:04:19;;;;;;;41.70;24.00;;;;;;;-1.67;100.00;102411.41;106161;1256;72556;-79
2023/12/16 06:06:49;;;;;;;42.20;23.00;;;;;;;-1.63;100.00;102414.92;106095;1253;61915;-79
2023/12/16 06:09:16;;;;;;;38.00;23.50;;;;;;;-1.59;100.00;102413.14;106164;1253;60054;-76
2023/12/16 06:11:43;;;;;;;44.20;23.30;;;;;;;-1.55;100.00;102408.23;106123;1256;72932;-78
2023/12/16 06:14:13;;;;;;;44.00;23.50;;;;;;;-1.50;100.00;102407.11;105984;1257;63913;-79
2023/12/16 06:16:41;;;;;;;34.80;20.80;;;;;;;-1.46;100.00;102412.34;105936;1252;72668;-78
2023/12/16 06:19:07;;;;;;;42.10;24.50;;;;;;;-1.42;100.00;102420.80;105912;1253;60914;-79
2023/12/16 06:21:34;;;;;;;37.30;23.80;;;;;;;-1.39;100.00;102421.05;105743;1257;60520;-78
2023/12/16 06:24:02;;;;;;;31.80;21.80;;;;;;;-1.35;100.00;102413.06;105840;1257;73842;-77
2023/12/16 06:26:30;;;;;;;30.90;19.10;;;;;;;-1.31;100.00;102413.98;105833;1253;63817;-78
2023/12/16 06:28:57;;;;;;;38.30;19.30;;;;;;;-1.25;100.00;102417.52;105827;1252;72632;-78
2023/12/16 06:31:27;;;;;;;33.30;20.30;;;;;;;-1.19;100.00;102421.91;105911;1253;61206;-76
2023/12/16 06:33:55;;;;;;;33.40;19.30;;;;;;;-1.12;100.00;102420.65;105877;1252;60490;-78
2023/12/16 06:36:23;;;;;;;34.80;19.00;;;;;;;-1.06;100.00;102417.16;105693;1255;73928;-79
2023/12/16 06:38:50;;;;;;;29.80;19.90;;;;;;;-1.02;100.00;102423.05;105978;1253;62296;-79
2023/12/16 06:41:17;;;;;;;37.90;20.00;;;;;;;-0.97;100.00;102424.86;105838;1253;71432;-76
2023/12/16 06:43:44;;;;;;;36.30;21.00;;;;;;;-0.92;100.00;102424.77;105858;1252;61162;-79
2023/12/16 06:46:11;;;;;;;35.70;20.50;;;;;;;-0.87;100.00;102425.90;105909;1253;60533;-78
2023/12/16 06:48:39;;;;;;;33.70;20.80;;;;;;;-0.81;100.00;102431.65;105755;1252;73936;-76
2023/12/16 06:51:06;;;;;;;37.10;21.40;;;;;;;-0.76;100.00;102438.42;105861;1257;63850;-76
2023/12/16 06:53:35;;;;;;;39.90;21.00;;;;;;;-0.71;100.00;102433.55;105797;1256;71217;-78
2023/12/16 06:56:05;;;;;;;42.60;21.50;;;;;;;-0.66;100.00;102427.60;105778;1257;61241;-79
2023/12/16 06:58:37;;;;;;;43.30;24.90;;;;;;;-0.60;100.00;102425.80;105812;1257;60429;-79
2023/12/16 07:01:05;;;;;;;45.80;24.40;;;;;;;-0.56;100.00;102430.33;105855;1257;74061;-78
2023/12/16 07:03:35;;;;;;;40.50;24.60;;;;;;;-0.51;100.00;102432.13;105765;1257;63878;-78
2023/12/16 07:06:03;;;;;;;44.80;25.30;;;;;;;-0.48;100.00;102438.02;105800;1253;72650;-78
2023/12/16 07:08:30;;;;;;;48.30;24.40;;;;;;;-0.44;100.00;102439.95;105698;1252;61316;-77
2023/12/16 07:10:57;;;;;;;41.10;22.30;;;;;;;-0.39;100.00;102435.05;105707;1252;60419;-78
2023/12/16 07:13:25;;;;;;;38.80;23.00;;;;;;;-0.35;100.00;102426.35;105736;1257;73832;-77
2023/12/16 07:15:52;;;;;;;40.40;21.60;;;;;;;-0.29;100.00;102423.68;105796;1256;62858;-77
2023/12/16 07:18:20;;;;;;;36.10;21.90;;;;;;;-0.25;100.00;102421.69;105831;1257;71107;-75
2023/12/16 07:20:47;;;;;;;36.80;22.20;;;;;;;-0.22;100.00;102425.49;105734;1256;60985;-78
2023/12/16 07:23:15;;;;;;;40.10;24.20;;;;;;;-0.18;100.00;102429.84;105847;1253;60547;-78
2023/12/16 07:25:42;;;;;;;38.30;22.50;;;;;;;-0.15;100.00;102435.22;105842;1256;73807;-77
2023/12/16 07:28:09;;;;;;;42.30;25.00;;;;;;;-0.12;100.00;102438.35;105736;1256;64035;-78
2023/12/16 07:30:37;;;;;;;41.50;24.00;;;;;;;-0.08;100.00;102444.94;105625;1257;72550;-77
2023/12/16 07:33:04;;;;;;;37.70;22.70;;;;;;;-0.05;100.00;102451.00;105931;1257;61268;-78
2023/12/16 07:35:33;;;;;;;50.00;24.60;;;;;;;-0.02;100.00;102453.61;105835;1253;61008;-78
2023/12/16 07:38:03;;;;;;;48.40;27.40;;;;;;;0.03;100.00;102451.79;105921;1256;73925;-77
2023/12/16 07:40:31;;;;;;;43.00;26.80;;;;;;;0.08;100.00;102452.72;106251;1257;63726;-76
2023/12/16 07:42:59;;;;;;;54.40;32.80;;;;;;;0.13;100.00;102449.16;105881;1253;72735;-78
2023/12/16 07:45:29;;;;;;;55.40;31.50;;;;;;;0.19;100.00;102446.84;105860;1253;60565;-77
2023/12/16 07:47:58;;;;;;;44.60;26.70;;;;;;;0.25;100.00;102449.48;105779;1253;61121;-78
2023/12/16 07:50:28;;;;;;;47.60;27.10;;;;;;;0.30;100.00;102449.90;106001;1257;73722;-77
2023/12/16 07:52:55;;;;;;;46.00;25.80;;;;;;;0.37;100.00;102448.43;106039;1257;64050;-75
2023/12/16 07:55:23;;;;;;;42.40;24.10;;;;;;;0.45;100.00;102455.40;105811;1253;71283;-79
2023/12/16 07:57:50;;;;;;;45.70;25.00;;;;;;;0.50;100.00;102452.54;105783;1256;61035;-77
2023/12/16 08:00:19;;;;;;;45.30;26.00;;;;;;;0.55;100.00;102454.30;105747;1253;60479;-77
2023/12/16 08:02:48;;;;;;;43.20;23.10;;;;;;;0.61;100.00;102448.52;105712;1253;74012;-76
2023/12/16 08:05:16;;;;;;;31.70;19.70;;;;;;;0.66;100.00;102438.08;105711;1257;64013;-78
2023/12/16 08:07:46;;;;;;;31.50;18.90;;;;;;;0.69;100.00;102441.55;105771;1253;72674;-78
2023/12/16 08:10:13;;;;;;;37.60;22.50;;;;;;;0.71;100.00;102443.30;105839;1257;60452;-78
2023/12/16 08:12:40;;;;;;;41.30;24.50;;;;;;;0.75;100.00;102449.19;105832;1253;60519;-78
2023/12/16 08:15:08;;;;;;;38.90;24.80;;;;;;;0.79;100.00;102446.48;105777;1256;73737;-77
2023/12/16 08:17:37;;;;;;;41.70;24.70;;;;;;;0.83;100.00;102441.53;105803;1257;63815;-79
2023/12/16 08:20:05;;;;;;;47.10;25.60;;;;;;;0.90;100.00;102439.70;105733;1252;72633;-78
2023/12/16 08:22:33;;;;;;;50.40;28.10;;;;;;;0.98;100.00;102439.60;105693;1253;60464;-77
2023/12/16 08:25:00;;;;;;;39.10;24.10;;;;;;;1.07;100.00;102435.38;105753;1253;60454;-78
2023/12/16 08:27:28;;;;;;;41.10;23.60;;;;;;;1.17;100.00;102439.41;105698;1253;73940;-79
2023/12/16 08:29:55;;;;;;;41.10;23.30;;;;;;;1.25;100.00;102438.45;105841;1253;62358;-78
2023/12/16 08:32:22;;;;;;;34.50;21.10;;;;;;;1.32;100.00;102440.40;105647;1253;71117;-76
2023/12/16 08:34:49;;;;;;;32.40;20.20;;;;;;;1.37;100.00;102438.03;105893;1253;60464;-77
2023/12/16 08:37:16;;;;;;;32.60;18.70;;;;;;;1.41;100.00;102434.61;105906;1252;60458;-78
2023/12/16 08:39:43;;;;;;;35.40;19.60;;;;;;;1.39;100.00;102428.23;105757;1252;74048;-77
2023/12/16 08:42:10;;;;;;;27.90;14.80;;;;;;;1.41;100.00;102427.89;105765;1256;62382;-78
2023/12/16 08:44:37;;;;;;;24.80;15.10;;;;;;;1.48;100.00;102426.91;105791;1253;72736;-78
2023/12/16 08:47:04;;;;;;;23.00;15.20;;;;;;;1.52;100.00;102429.69;105801;1257;60554;-78
2023/12/16 08:49:32;;;;;;;27.30;16.10;;;;;;;1.55;100.00;102432.14;106014;1253;60499;-78
2023/12/16 08:52:00;;;;;;;21.80;15.00;;;;;;;1.58;100.00;102428.70;105748;1253;73884;-77
2023/12/16 08:54:26;;;;;;;18.60;13.20;;;;;;;1.62;100.00;102433.38;105678;1257;64122;-76
2023/12/16 08:56:54;;;;;;;23.70;14.30;;;;;;;1.68;100.00;102437.38;105777;1258;72804;-79
2023/12/16 08:59:21;;;;;;;22.70;12.90;;;;;;;1.75;100.00;102436.55;105826;1253;60456;-77
2023/12/16 09:01:49;;;;;;;21.60;11.20;;;;;;;1.83;100.00;102434.02;105848;1253;60352;-79
2023/12/16 09:04:16;;;;;;;17.30;10.70;;;;;;;1.88;100.00;102424.22;105697;1257;172543;-77
2023/12/16 09:07:59;;;;;;;14.20;10.20;;;;;;;1.93;100.00;102424.23;102385;1295;614076;-77
2023/12/16 09:10:26;;;;;;;15.00;9.50;;;;;;;1.94;100.00;102416.82;105045;1268;61069;-78
2023/12/16 09:12:53;;;;;;;15.20;10.30;;;;;;;1.97;100.00;102413.91;104915;1268;60340;-78
2023/12/16 09:15:20;;;;;;;16.50;10.10;;;;;;;1.99;100.00;102411.00;104863;1266;72052;-78
2023/12/16 09:17:47;;;;;;;17.60;10.00;;;;;;;2.03;100.00;102406.88;104994;1269;63734;-76
2023/12/16 09:20:15;;;;;;;15.30;10.50;;;;;;;2.12;100.00;102406.56;104978;1264;169738;-77
2023/12/16 09:22:42;;;;;;;13.80;8.90;;;;;;;2.18;100.00;102410.89;105081;1264;61671;-77
2023/12/16 09:25:09;;;;;;;13.00;8.30;;;;;;;2.23;100.00;102403.14;105201;1263;60614;-79
2023/12/16 09:27:36;;;;;;;16.00;8.80;;;;;;;2.24;100.00;102395.38;105130;1264;72035;-78
2023/12/16 09:30:04;;;;;;;12.30;8.00;;;;;;;2.23;100.00;102396.08;105144;1267;64215;-77
2023/12/16 09:32:33;;;;;;;10.50;7.50;;;;;;;2.26;100.00;102398.33;105098;1265;71189;-78
2023/12/16 09:35:00;;;;;;;13.10;9.20;;;;;;;2.31;100.00;102399.03;105142;1267;61298;-77
2023/12/16 09:37:30;;;;;;;17.00;10.80;;;;;;;2.34;100.00;102399.39;105142;1264;59761;-77
2023/12/16 09:40:05;;;;;;;12.60;8.50;;;;;;;2.35;100.00;102392.83;105023;1264;73148;-77
2023/12/16 09:42:35;;;;;;;12.80;8.90;;;;;;;2.38;100.00;102388.02;104828;1270;63891;-76
2023/12/16 09:45:03;;;;;;;14.40;8.90;;;;;;;2.38;100.00;102384.20;105551;1264;71610;-75
2023/12/16 09:47:30;;;;;;;14.60;10.20;;;;;;;2.37;100.00;102385.05;105900;1258;61188;-77
2023/12/16 09:50:00;;;;;;;11.30;9.10;;;;;;;2.42;100.00;102378.01;105898;1252;60182;-75
2023/12/16 09:52:27;;;;;;;12.60;8.30;;;;;;;2.49;100.00;102368.17;105934;1254;72485;-76
2023/12/16 09:54:55;;;;;;;9.30;6.80;;;;;;;2.57;100.00;102364.40;105875;1257;62396;-77
2023/12/16 09:57:23;;;;;;;14.10;8.70;;;;;;;2.63;100.00;102362.15;105716;1257;72659;-77
2023/12/16 09:59:50;;;;;;;11.50;7.80;;;;;;;2.69;100.00;102362.85;105901;1256;61236;-76
2023/12/16 10:02:27;;;;;;;10.90;7.30;;;;;;;2.71;100.00;102361.98;105535;1253;60250;-77
2023/12/16 10:04:58;;;;;;;13.20;7.80;;;;;;;2.74;100.00;102368.55;105791;1252;72902;-76
2023/12/16 10:07:26;;;;;;;13.60;8.20;;;;;;;2.76;100.00;102384.79;105827;1254;63875;-78
2023/12/16 10:09:53;;;;;;;11.80;7.60;;;;;;;2.76;100.00;102390.84;105749;1253;72687;-76
2023/12/16 10:12:20;;;;;;;14.70;9.30;;;;;;;2.76;100.00;102391.16;105695;1257;59757;-78
2023/12/16 10:14:48;;;;;;;18.70;8.50;;;;;;;2.72;100.00;102389.27;105806;1257;59670;-78
2023/12/16 10:17:16;;;;;;;12.10;8.90;;;;;;;2.72;100.00;102388.77;105946;1256;73336;-76
2023/12/16 10:19:44;;;;;;;13.70;9.50;;;;;;;2.75;100.00;102385.99;105885;1253;63858;-78
2023/12/16 10:22:23;;;;;;;13.30;9.10;;;;;;;2.74;100.00;102381.86;105904;1253;71258;-77
2023/12/16 10:24:51;;;;;;;13.10;7.80;;;;;;;2.73;100.00;102383.23;105830;1257;61256;-77
2023/12/16 10:27:19;;;;;;;11.70;9.00;;;;;;;2.71;100.00;102390.15;105744;1256;59781;-77
2023/12/16 10:29:50;;;;;;;12.30;9.20;;;;;;;2.69;100.00;102394.10;105750;1253;73039;-76
2023/12/16 10:32:33;;;;;;;17.30;11.60;;;;;;;2.68;100.00;102399.80;105727;1257;64260;-76
2023/12/16 10:35:02;;;;;;;10.40;8.50;;;;;;;2.65;100.00;102402.21;105825;1257;72661;-75
2023/12/16 10:37:29;;;;;;;20.70;10.20;;;;;;;2.60;100.00;102398.77;105780;1257;61194;-76
2023/12/16 10:39:57;;;;;;;15.90;9.40;;;;;;;2.58;100.00;102401.17;105802;1254;60039;-77
2023/12/16 10:42:24;;;;;;;15.40;8.70;;;;;;;2.57;100.00;102398.41;105881;1253;73162;-77
2023/12/16 10:44:52;;;;;;;16.40;10.70;;;;;;;2.58;100.00;102396.85;105666;1254;62731;-78
2023/12/16 10:47:19;;;;;;;13.40;9.20;;;;;;;2.58;100.00;102395.48;105765;1253;71252;-77
2023/12/16 10:49:46;;;;;;;16.60;9.80;;;;;;;2.56;100.00;102398.76;105728;1257;61235;-78
2023/12/16 10:52:17;;;;;;;11.80;8.00;;;;;;;2.54;100.00;102397.20;105671;1253;60173;-77
2023/12/16 10:54:47;;;;;;;14.10;9.00;;;;;;;2.54;100.00;102392.36;105870;1253;73090;-78
2023/12/16 10:57:22;;;;;;;11.30;7.80;;;;;;;2.54;100.00;102399.61;106216;1253;62391;-76
2023/12/16 11:00:08;;;;;;;13.30;7.90;;;;;;;2.54;100.00;102397.20;106161;1253;71101;-75
2023/12/16 11:03:02;;;;;;;14.00;8.30;;;;;;;2.54;100.00;102391.84;106059;1257;60956;-78
2023/12/16 11:05:31;;;;;;;11.30;8.50;;;;;;;2.51;100.00;102390.28;105806;1257;59905;-79